West Homestead, Pennsylvania
Current Conditions -  °F | °C
As of 8:33 PM on Thursday 27 Nov 2014 (Local Time) from KAGC Reporting Station
Overcast Overcast  
Wind Chill: -8°   Ceiling: 8500
Heat Index: -2°   Visibility: 7mi
Dew Point: -6°   Wind: 12mph
Humidity: 78%   Direction: 270°W
Pressure: 30.17"   Gusts: 20mph
Location:  40.3948°N, 79.9074°W
Report Text: KAGC 280133Z 27010G17KT 7SM SCT018 BKN085 OVC120 M02/M06 A3017 RMK AO2 T10221056
Loading
Personal Weather Stations






























Interactive Weather Map New forecast layout! Learn more

10-Day Weather Forecast

Advertisements
Track Severe Weather on mobile